Time;durP1;ratioP1;P1;durP2;ratioP2;P2;SDS_P1;SDS_P2;PMS_P1;PMS_P2;Temp;Humidity;BMP_temperature;BMP_pressure;BME280_temperature;BME280_humidity;BME280_pressure;Samples;Min_cycle;Max_cycle;Signal;HPM_P1;HPM_P2
2022/02/06 00:01:35;;;;;;;13.00;2.22;;;24.20;99.90;;;;;;4999653;28;20120;-63
2022/02/06 00:04:03;;;;;;;9.32;1.40;;;24.10;99.90;;;;;;5006601;28;20057;-63
2022/02/06 00:06:33;;;;;;;13.48;2.08;;;23.70;99.90;;;;;;5006461;28;20026;-64
2022/02/06 00:09:00;;;;;;;11.65;1.70;;;23.90;99.90;;;;;;5019132;28;20029;-64
2022/02/06 00:11:27;;;;;;;9.95;1.65;;;24.30;99.90;;;;;;5021013;28;20133;-64
2022/02/06 00:13:56;;;;;;;13.30;2.50;;;24.30;99.90;;;;;;5016411;28;20110;-64
2022/02/06 00:16:24;;;;;;;9.35;1.30;;;23.80;99.90;;;;;;5015185;28;20655;-64
2022/02/06 00:18:51;;;;;;;11.40;2.15;;;23.90;99.90;;;;;;5016301;28;20548;-64
2022/02/06 00:21:20;;;;;;;8.60;1.77;;;24.00;99.90;;;;;;5016253;28;20633;-64
2022/02/06 00:23:51;;;;;;;9.13;1.98;;;24.00;99.90;;;;;;5014405;28;20030;-64
2022/02/06 00:26:39;;;;;;;10.32;1.45;;;23.80;99.90;;;;;;5016551;28;20441;-64
2022/02/06 00:31:51;;;;;;;9.60;1.67;;;24.50;99.90;;;;;;5016475;28;20038;-64
2022/02/06 00:39:17;;;;;;;8.40;2.28;;;23.10;99.90;;;;;;5005953;28;20057;-64
2022/02/06 00:41:44;;;;;;;12.27;3.33;;;22.80;99.90;;;;;;5013820;28;20057;-64
2022/02/06 00:44:11;;;;;;;13.30;2.05;;;22.80;99.90;;;;;;5016569;28;20037;-64
2022/02/06 00:46:40;;;;;;;10.05;2.03;;;22.80;99.90;;;;;;5018081;28;20030;-64
2022/02/06 00:49:23;;;;;;;9.85;2.50;;;22.90;99.90;;;;;;5016925;28;20026;-65
2022/02/06 00:52:18;;;;;;;9.50;1.65;;;22.90;99.90;;;;;;5016972;28;20080;-64
2022/02/06 00:54:38;;;;;;;14.40;2.28;;;22.70;99.90;;;;;;5016444;28;20034;-64
2022/02/06 00:57:06;;;;;;;8.60;2.05;;;22.60;99.90;;;;;;5015449;28;20029;-64
2022/02/06 00:59:33;;;;;;;12.02;1.98;;;22.50;99.90;;;;;;5016758;28;20087;-64
2022/02/06 01:02:00;;;;;;;10.68;1.73;;;22.60;99.90;;;;;;5016349;28;20022;-64
2022/02/06 01:04:33;;;;;;;13.25;1.85;;;23.00;99.90;;;;;;5017133;28;20124;-64
2022/02/06 01:07:02;;;;;;;17.05;2.25;;;23.40;99.90;;;;;;5016634;28;20475;-64
2022/02/06 01:09:29;;;;;;;13.02;1.80;;;23.90;99.90;;;;;;5007098;28;20360;-66
2022/02/06 01:11:57;;;;;;;12.07;1.23;;;24.20;99.90;;;;;;5015311;28;20033;-62
2022/02/06 01:14:38;;;;;;;9.95;1.48;;;23.90;99.90;;;;;;5014805;28;20053;-63
2022/02/06 01:17:26;;;;;;;11.10;1.70;;;24.00;99.90;;;;;;5012734;28;20049;-64
2022/02/06 01:20:09;;;;;;;9.70;1.90;;;24.20;99.90;;;;;;5007302;28;20022;-64
2022/02/06 01:22:39;;;;;;;10.68;2.17;;;24.30;99.90;;;;;;5010104;28;20040;-64
2022/02/06 01:25:14;;;;;;;10.43;1.70;;;24.40;99.90;;;;;;5014420;28;20084;-64
2022/02/06 01:27:49;;;;;;;8.00;1.70;;;24.40;99.90;;;;;;5015136;28;20084;-64
2022/02/06 01:30:24;;;;;;;5.10;1.08;;;24.10;99.90;;;;;;5006089;28;20044;-64
2022/02/06 01:32:56;;;;;;;15.10;2.00;;;23.50;99.90;;;;;;5014106;28;20474;-65
2022/02/06 01:35:32;;;;;;;14.23;1.52;;;23.20;99.90;;;;;;5012666;28;20045;-65
2022/02/06 01:43:21;;;;;;;13.18;1.77;;;23.80;99.90;;;;;;5013395;28;20065;-65
2022/02/06 02:07:27;;;;;;;8.93;1.67;;;24.80;99.90;;;;;;5002333;28;20546;-65
2022/02/06 02:21:15;;;;;;;8.90;2.22;;;24.90;99.90;;;;;;5017099;28;20105;-65
2022/02/06 02:45:24;;;;;;;7.32;1.20;;;24.30;99.90;;;;;;5018219;28;20073;-64
2022/02/06 02:48:00;;;;;;;5.40;1.13;;;24.10;99.90;;;;;;5008640;28;20018;-64
2022/02/06 02:50:30;;;;;;;8.82;1.38;;;23.80;99.90;;;;;;5020307;28;20399;-64
2022/02/06 02:53:14;;;;;;;11.55;1.58;;;23.50;99.90;;;;;;5022032;28;20249;-64
2022/02/06 03:03:40;;;;;;;11.30;2.17;;;24.60;99.90;;;;;;5007524;28;20070;-65
2022/02/06 03:06:07;;;;;;;8.38;1.98;;;24.50;99.90;;;;;;4999300;28;20053;-65
2022/02/06 03:08:37;;;;;;;15.13;2.70;;;24.20;99.90;;;;;;4998782;28;20030;-65
2022/02/06 03:11:08;;;;;;;17.55;2.58;;;22.50;99.90;;;;;;5015978;28;20018;-65
2022/02/06 03:13:44;;;;;;;10.23;1.67;;;22.00;99.90;;;;;;5016116;28;20030;-65
2022/02/06 03:21:28;;;;;;;9.63;1.60;;;21.20;99.90;;;;;;5012485;28;20026;-65
2022/02/06 03:24:06;;;;;;;11.68;1.80;;;20.90;99.90;;;;;;4998551;28;20034;-64
2022/02/06 03:26:33;;;;;;;8.20;1.58;;;21.00;99.90;;;;;;5009707;28;20096;-65
2022/02/06 03:29:00;;;;;;;7.35;0.98;;;21.30;99.90;;;;;;4998595;28;20018;-65
2022/02/06 03:31:27;;;;;;;8.80;1.75;;;21.40;99.90;;;;;;4998022;28;20054;-65
2022/02/06 03:33:55;;;;;;;6.43;1.27;;;21.50;99.90;;;;;;5014204;28;20041;-66
2022/02/06 03:36:22;;;;;;;5.40;0.80;;;21.90;99.90;;;;;;5015011;28;20093;-65
2022/02/06 03:38:52;;;;;;;7.20;1.00;;;21.70;99.90;;;;;;5018741;28;20018;-65
2022/02/06 03:41:25;;;;;;;6.05;0.90;;;21.80;99.90;;;;;;5013753;28;20105;-65
2022/02/06 03:48:53;;;;;;;11.85;1.90;;;21.80;99.90;;;;;;5016880;28;20390;-66
2022/02/06 03:51:29;;;;;;;8.07;2.00;;;21.80;99.90;;;;;;5017826;28;20026;-66
2022/02/06 03:53:56;;;;;;;13.80;1.38;;;21.90;99.90;;;;;;5008076;28;20022;-65
2022/02/06 03:56:26;;;;;;;11.18;1.35;;;22.00;99.90;;;;;;4998811;28;20037;-66
2022/02/06 03:58:53;;;;;;;7.03;1.58;;;22.50;99.90;;;;;;5028173;28;20028;-66
2022/02/06 04:01:23;;;;;;;11.80;2.70;;;22.70;99.90;;;;;;5019928;28;20495;-66
2022/02/06 04:03:50;;;;;;;9.38;1.63;;;22.90;99.90;;;;;;4986793;28;20050;-65
2022/02/06 04:06:17;;;;;;;6.63;1.20;;;23.10;99.90;;;;;;5034295;28;20040;-66
2022/02/06 04:08:45;;;;;;;10.80;1.25;;;23.20;99.90;;;;;;5011192;28;20037;-66
2022/02/06 04:11:20;;;;;;;8.32;1.20;;;23.20;99.90;;;;;;5010685;28;20046;-65
2022/02/06 04:14:07;;;;;;;8.20;1.02;;;23.20;99.90;;;;;;4997182;28;20022;-65
2022/02/06 04:16:41;;;;;;;7.18;1.35;;;23.30;99.90;;;;;;5011960;28;20029;-66
2022/02/06 04:19:24;;;;;;;9.45;1.67;;;23.20;99.90;;;;;;4995758;28;20042;-65
2022/02/06 04:21:52;;;;;;;8.93;1.60;;;23.50;99.90;;;;;;5003365;28;20031;-65
2022/02/06 04:24:20;;;;;;;7.07;1.60;;;23.50;99.90;;;;;;5012465;28;20026;-66
2022/02/06 04:26:49;;;;;;;13.68;1.92;;;23.10;99.90;;;;;;5011104;28;20023;-65
2022/02/06 04:29:17;;;;;;;9.77;1.55;;;22.80;99.90;;;;;;5008962;28;20026;-65
2022/02/06 04:31:47;;;;;;;9.77;2.13;;;22.80;99.90;;;;;;4997731;28;20394;-65
2022/02/06 04:34:21;;;;;;;5.78;1.33;;;22.90;99.90;;;;;;5003864;28;20022;-65
2022/02/06 04:53:30;;;;;;;11.57;2.47;;;23.30;99.90;;;;;;5019269;28;20033;-66
2022/02/06 05:15:07;;;;;;;8.20;1.30;;;22.70;99.90;;;;;;5018237;28;20412;-64
2022/02/06 05:18:07;;;;;;;13.10;1.93;;;22.50;99.90;;;;;;5018699;28;20033;-64
2022/02/06 05:20:56;;;;;;;6.30;1.00;;;22.60;99.90;;;;;;5025277;28;20095;-64
2022/02/06 05:28:43;;;;;;;9.43;1.70;;;22.60;99.90;;;;;;5014172;28;20037;-64
2022/02/06 05:31:13;;;;;;;11.60;2.25;;;22.70;99.90;;;;;;5016227;28;20059;-64
2022/02/06 05:33:46;;;;;;;12.65;1.40;;;22.50;99.90;;;;;;5013140;28;20017;-64
2022/02/06 05:36:13;;;;;;;13.10;2.33;;;22.60;99.90;;;;;;5032439;28;20037;-64
2022/02/06 05:38:40;;;;;;;9.68;2.17;;;23.00;99.90;;;;;;5000694;28;20029;-64
2022/02/06 05:41:08;;;;;;;9.80;1.70;;;23.20;99.90;;;;;;5025378;28;20592;-64
2022/02/06 05:43:36;;;;;;;6.70;1.30;;;23.30;99.90;;;;;;5015551;28;20018;-63
2022/02/06 05:46:05;;;;;;;10.90;1.58;;;23.30;99.90;;;;;;5004027;28;20017;-64
2022/02/06 05:48:32;;;;;;;9.40;1.98;;;23.00;99.90;;;;;;5012557;28;20044;-64
2022/02/06 05:50:59;;;;;;;13.02;2.13;;;22.60;99.90;;;;;;5015688;28;20029;-64
2022/02/06 05:53:27;;;;;;;11.38;1.85;;;22.40;99.90;;;;;;5015504;28;20093;-64
2022/02/06 05:55:54;;;;;;;15.13;1.98;;;22.70;99.90;;;;;;5011730;28;20114;-63
2022/02/06 05:58:22;;;;;;;10.80;2.05;;;23.00;99.90;;;;;;5014147;28;20562;-64
2022/02/06 06:00:49;;;;;;;12.50;1.65;;;23.20;99.90;;;;;;4997437;28;20030;-65
2022/02/06 06:03:16;;;;;;;11.35;1.77;;;23.00;99.90;;;;;;5014057;28;20029;-64
2022/02/06 06:05:43;;;;;;;8.30;1.55;;;22.80;99.90;;;;;;5021236;28;20104;-64
2022/02/06 06:08:11;;;;;;;9.05;1.30;;;22.50;99.90;;;;;;5031607;28;20064;-64
2022/02/06 06:10:38;;;;;;;10.50;1.85;;;22.50;99.90;;;;;;5018874;28;20109;-64
2022/02/06 06:13:05;;;;;;;10.20;1.70;;;22.50;99.90;;;;;;5018955;28;20064;-64
2022/02/06 06:15:33;;;;;;;10.45;1.52;;;22.30;99.90;;;;;;5012459;28;20390;-64
2022/02/06 06:18:04;;;;;;;9.07;1.33;;;22.20;99.90;;;;;;5005346;28;20445;-63
2022/02/06 06:20:33;;;;;;;7.43;1.30;;;22.20;99.90;;;;;;5008308;28;20032;-64
2022/02/06 06:23:01;;;;;;;11.50;1.30;;;22.30;99.90;;;;;;5013075;28;20029;-64
2022/02/06 06:25:35;;;;;;;8.73;1.45;;;22.50;99.90;;;;;;5006317;28;20061;-64
2022/02/06 06:28:03;;;;;;;10.43;2.03;;;22.70;99.90;;;;;;5009331;28;20018;-64
2022/02/06 06:30:31;;;;;;;9.38;1.10;;;22.80;99.90;;;;;;4981349;28;20037;-64
2022/02/06 06:32:58;;;;;;;10.23;1.42;;;22.80;99.90;;;;;;5003699;28;20394;-64
2022/02/06 06:35:25;;;;;;;7.72;1.80;;;22.70;99.90;;;;;;5014035;28;20022;-64
2022/02/06 06:37:53;;;;;;;6.97;1.08;;;22.60;99.90;;;;;;5014429;28;20030;-63
2022/02/06 06:40:20;;;;;;;8.68;1.23;;;22.50;99.90;;;;;;5007670;28;20050;-64
2022/02/06 06:42:47;;;;;;;13.43;1.80;;;22.50;99.90;;;;;;5015034;28;20025;-63
2022/02/06 06:45:14;;;;;;;11.90;2.05;;;22.50;99.90;;;;;;4996026;28;20037;-63
2022/02/06 06:47:49;;;;;;;9.25;1.80;;;22.70;99.90;;;;;;5008630;28;20021;-63
2022/02/06 06:50:16;;;;;;;13.63;2.38;;;22.60;99.90;;;;;;5008530;28;20034;-63
2022/02/06 06:52:45;;;;;;;9.68;1.67;;;22.90;99.90;;;;;;5020613;28;20021;-63
2022/02/06 06:55:16;;;;;;;10.25;1.55;;;23.10;99.90;;;;;;5029302;28;20022;-63
2022/02/06 06:57:52;;;;;;;8.93;1.48;;;22.80;99.90;;;;;;5027047;28;20046;-63
2022/02/06 07:00:23;;;;;;;10.10;2.45;;;22.70;99.90;;;;;;5016483;28;20049;-63
2022/02/06 07:02:50;;;;;;;8.43;2.30;;;22.50;99.90;;;;;;5030006;28;20093;-63
2022/02/06 07:05:18;;;;;;;7.53;1.65;;;22.50;99.90;;;;;;5028589;28;20032;-63
2022/02/06 07:07:45;;;;;;;14.55;1.40;;;22.50;99.90;;;;;;5031110;28;20089;-63
2022/02/06 07:10:13;;;;;;;14.32;2.55;;;22.50;99.90;;;;;;5016847;28;20034;-64
2022/02/06 07:12:40;;;;;;;12.25;1.67;;;22.40;99.90;;;;;;5006179;28;20113;-63
2022/02/06 07:15:08;;;;;;;10.02;2.20;;;22.50;99.90;;;;;;5011377;28;20081;-63
2022/02/06 07:17:35;;;;;;;8.10;1.90;;;22.60;99.90;;;;;;5012580;28;20671;-63
2022/02/06 07:20:04;;;;;;;12.57;2.03;;;22.70;99.90;;;;;;5007633;28;20058;-63
2022/02/06 07:22:35;;;;;;;16.73;3.03;;;22.50;99.90;;;;;;5007584;28;20023;-63
2022/02/06 07:25:03;;;;;;;11.13;1.85;;;22.60;99.90;;;;;;5003224;28;20022;-64
2022/02/06 07:27:37;;;;;;;11.85;2.28;;;22.50;99.90;;;;;;5000384;28;20027;-63
2022/02/06 07:30:06;;;;;;;;;;;22.60;99.90;;;;;;5003202;28;20021;-63
2022/02/06 07:32:37;;;;;;;8.32;1.67;;;22.80;99.90;;;;;;5004952;28;19932;-63
2022/02/06 07:35:08;;;;;;;8.52;1.20;;;22.80;99.90;;;;;;5009748;28;20109;-62
2022/02/06 07:37:41;;;;;;;9.38;1.30;;;22.50;99.90;;;;;;5008215;28;20542;-63
2022/02/06 07:40:09;;;;;;;8.70;1.55;;;21.90;99.90;;;;;;5033356;22;20056;-63
2022/02/06 07:42:36;;;;;;;6.95;1.55;;;21.60;99.90;;;;;;5047744;28;20041;-62
2022/02/06 07:45:05;;;;;;;7.47;1.13;;;21.10;99.90;;;;;;5046061;28;20102;-62
2022/02/06 07:47:33;;;;;;;9.80;1.60;;;21.00;99.90;;;;;;5060406;28;20036;-62
2022/02/06 07:50:03;;;;;;;8.85;1.58;;;20.70;99.90;;;;;;5059666;28;20166;-63
2022/02/06 07:52:31;;;;;;;7.15;1.63;;;20.70;99.90;;;;;;5057145;28;20041;-62
2022/02/06 07:55:00;;;;;;;9.77;1.70;;;20.60;99.90;;;;;;5041011;28;20032;-62
2022/02/06 07:57:27;;;;;;;18.45;3.25;;;20.70;99.90;;;;;;5057726;28;20048;-63
2022/02/06 07:59:55;;;;;;;13.68;2.80;;;20.80;99.90;;;;;;5037955;28;20052;-62
2022/02/06 08:02:22;;;;;;;11.48;2.15;;;20.90;99.90;;;;;;5056570;28;20029;-62
2022/02/06 08:04:50;;;;;;;10.68;2.63;;;21.00;99.90;;;;;;5055411;28;20424;-63
2022/02/06 08:07:18;;;;;;;14.70;2.38;;;21.10;99.90;;;;;;5055874;28;20481;-64
2022/02/06 08:09:55;;;;;;;13.07;2.03;;;21.10;99.90;;;;;;5037740;28;20045;-63
2022/02/06 08:12:29;;;;;;;12.15;2.33;;;21.10;99.90;;;;;;5059743;28;20032;-63
2022/02/06 08:15:03;;;;;;;10.20;1.25;;;21.20;99.90;;;;;;5056115;28;20118;-63
2022/02/06 08:17:35;;;;;;;10.40;1.70;;;21.30;99.90;;;;;;5052457;28;20034;-63
2022/02/06 08:20:06;;;;;;;15.57;2.47;;;21.30;99.90;;;;;;5053406;28;20036;-63
2022/02/06 08:22:33;;;;;;;8.73;1.55;;;21.30;99.90;;;;;;5055444;28;20474;-63
2022/02/06 08:25:00;;;;;;;6.88;0.93;;;21.30;99.90;;;;;;5056394;28;20594;-63
2022/02/06 08:27:28;;;;;;;7.07;1.65;;;21.30;99.90;;;;;;5056346;28;20103;-63
2022/02/06 08:29:58;;;;;;;14.93;1.83;;;21.30;99.90;;;;;;5038615;28;20366;-62
2022/02/06 08:32:28;;;;;;;8.77;1.40;;;21.30;99.90;;;;;;5051804;28;20120;-63
2022/02/06 08:34:57;;;;;;;14.05;1.75;;;21.30;99.90;;;;;;5053329;28;20025;-63
2022/02/06 08:37:24;;;;;;;14.13;1.98;;;21.20;99.90;;;;;;5044171;28;20091;-62
2022/02/06 08:39:52;;;;;;;10.55;1.25;;;21.00;99.90;;;;;;5047702;28;20046;-63
2022/02/06 08:42:19;;;;;;;9.45;1.35;;;21.00;99.90;;;;;;5035886;28;20085;-63
2022/02/06 08:44:48;;;;;;;13.18;1.70;;;20.90;99.90;;;;;;5034410;28;20104;-62
2022/02/06 08:47:17;;;;;;;11.35;1.83;;;20.80;99.90;;;;;;5034263;28;20393;-62
2022/02/06 08:49:45;;;;;;;8.20;0.90;;;20.70;99.90;;;;;;5026356;28;20377;-63
2022/02/06 08:52:13;;;;;;;10.48;1.23;;;20.70;99.90;;;;;;5033238;28;20060;-63
2022/02/06 08:54:41;;;;;;;5.90;1.08;;;20.70;99.90;;;;;;5031861;28;20022;-63
2022/02/06 08:57:21;;;;;;;8.68;1.25;;;20.70;99.90;;;;;;5033246;28;20049;-62
2022/02/06 08:59:48;;;;;;;6.72;0.95;;;20.60;99.90;;;;;;5023309;28;20533;-63
2022/02/06 09:02:16;;;;;;;6.03;0.88;;;20.60;99.90;;;;;;5034138;28;20111;-63
2022/02/06 09:04:44;;;;;;;7.63;1.33;;;20.70;99.90;;;;;;5043533;28;20029;-63
2022/02/06 09:07:12;;;;;;;6.78;1.63;;;20.80;99.90;;;;;;5048588;28;20712;-63
2022/02/06 09:09:46;;;;;;;8.00;1.20;;;20.80;99.90;;;;;;5028122;28;20033;-63
2022/02/06 09:12:13;;;;;;;7.27;0.87;;;20.90;99.90;;;;;;5026350;28;20052;-63
2022/02/06 09:14:41;;;;;;;8.45;1.00;;;20.90;99.90;;;;;;5034364;28;20267;-62
2022/02/06 09:17:11;;;;;;;7.72;1.35;;;20.90;99.90;;;;;;5034838;28;20104;-62
2022/02/06 09:19:39;;;;;;;9.13;2.38;;;20.80;99.90;;;;;;5034461;28;20433;-62
2022/02/06 09:22:08;;;;;;;6.22;1.38;;;20.80;99.90;;;;;;5033233;28;20029;-63
2022/02/06 09:24:36;;;;;;;13.40;2.00;;;20.80;99.90;;;;;;5033991;28;20018;-63
2022/02/06 09:27:05;;;;;;;12.77;1.63;;;20.70;99.90;;;;;;5032702;28;20025;-62
2022/02/06 09:29:32;;;;;;;11.02;1.85;;;20.60;99.90;;;;;;5033994;28;20393;-62
2022/02/06 09:37:11;;;;;;;10.60;1.80;;;20.60;99.90;;;;;;5033552;28;20741;-62
2022/02/06 09:39:41;;;;;;;10.70;1.65;;;20.70;99.90;;;;;;5014767;28;20042;-62
2022/02/06 09:42:10;;;;;;;8.50;2.00;;;20.70;99.90;;;;;;5033049;28;20052;-62
2022/02/06 09:44:37;;;;;;;8.32;2.13;;;20.70;99.90;;;;;;5037134;28;20045;-63
2022/02/06 09:47:05;;;;;;;7.30;1.40;;;20.80;99.90;;;;;;5021836;28;20025;-62
2022/02/06 09:49:33;;;;;;;5.28;0.93;;;20.90;99.90;;;;;;5033555;28;20122;-63
2022/02/06 09:52:01;;;;;;;8.57;1.45;;;20.90;99.90;;;;;;5032878;28;20482;-63
2022/02/06 09:54:29;;;;;;;10.48;1.85;;;21.00;99.90;;;;;;5032847;28;20076;-63
2022/02/06 09:57:00;;;;;;;10.73;1.30;;;20.90;99.90;;;;;;5034057;28;20025;-63
2022/02/06 09:59:36;;;;;;;9.00;1.65;;;20.90;99.90;;;;;;5033952;28;20490;-63
2022/02/06 10:02:04;;;;;;;7.13;1.55;;;20.80;99.90;;;;;;5024791;28;20545;-63
2022/02/06 10:04:32;;;;;;;9.50;1.70;;;20.80;99.90;;;;;;5031744;28;20051;-63
2022/02/06 10:07:14;;;;;;;11.43;1.65;;;20.60;99.90;;;;;;5032313;28;20490;-62
2022/02/06 10:09:57;;;;;;;8.52;1.77;;;20.60;99.90;;;;;;5033231;28;20033;-63
2022/02/06 10:12:26;;;;;;;11.18;1.55;;;20.60;99.90;;;;;;5039458;28;20089;-62
2022/02/06 10:14:53;;;;;;;9.60;1.33;;;20.60;99.90;;;;;;5032500;28;20494;-62
2022/02/06 10:17:23;;;;;;;12.05;2.15;;;20.50;99.90;;;;;;5032371;28;20029;-63
2022/02/06 10:19:53;;;;;;;12.20;2.03;;;20.50;99.90;;;;;;5034645;28;20041;-63
2022/02/06 10:22:29;;;;;;;13.82;2.25;;;20.50;99.90;;;;;;5030617;28;20486;-63
2022/02/06 10:25:03;;;;;;;11.73;1.95;;;20.50;99.90;;;;;;5045819;28;20029;-63
2022/02/06 10:28:09;;;;;;;12.32;1.75;;;20.40;99.90;;;;;;5037162;28;20049;-63
2022/02/06 10:30:50;;;;;;;6.00;1.27;;;20.50;99.90;;;;;;5031022;28;20044;-63
2022/02/06 10:33:23;;;;;;;15.10;3.08;;;20.40;99.90;;;;;;5052016;28;20032;-63
2022/02/06 10:35:55;;;;;;;15.07;2.88;;;20.30;99.90;;;;;;5032756;28;20043;-63
2022/02/06 10:38:28;;;;;;;13.05;2.72;;;19.90;99.90;;;;;;5039810;28;20032;-63
2022/02/06 10:41:16;;;;;;;13.32;2.47;;;19.30;99.90;;;;;;5028156;28;20057;-64
2022/02/06 10:44:06;;;;;;;16.52;3.28;;;18.70;99.90;;;;;;5016832;28;20026;-63
2022/02/06 10:46:58;;;;;;;12.73;2.15;;;18.60;99.90;;;;;;5048692;28;20044;-63
2022/02/06 10:49:26;;;;;;;13.00;2.67;;;18.70;99.90;;;;;;5052247;28;20033;-62
2022/02/06 10:52:04;;;;;;;13.70;2.40;;;18.70;99.90;;;;;;5051601;28;20041;-63
2022/02/06 10:54:31;;;;;;;15.25;2.72;;;18.70;99.90;;;;;;5053245;28;20006;-63
2022/02/06 10:57:13;;;;;;;19.38;2.72;;;18.70;99.90;;;;;;5055271;28;20025;-63
2022/02/06 10:59:53;;;;;;;13.63;2.40;;;18.80;99.90;;;;;;5062613;28;20013;-63
2022/02/06 11:02:26;;;;;;;15.13;2.40;;;18.90;99.90;;;;;;5053021;28;20033;-63
2022/02/06 11:05:01;;;;;;;12.55;2.22;;;18.90;99.90;;;;;;5053148;28;20022;-64
2022/02/06 11:07:29;;;;;;;20.83;2.92;;;18.90;99.90;;;;;;5056761;28;20014;-64
2022/02/06 11:10:14;;;;;;;14.88;3.20;;;18.90;99.90;;;;;;5052488;28;20014;-64
2022/02/06 11:12:48;;;;;;;22.42;3.40;;;18.90;99.90;;;;;;5049019;28;20025;-64
2022/02/06 11:15:41;;;;;;;21.80;2.60;;;18.90;99.90;;;;;;5033384;28;20020;-64
2022/02/06 11:18:20;;;;;;;15.82;2.08;;;18.80;99.90;;;;;;5054336;28;20021;-64
2022/02/06 11:20:58;;;;;;;9.80;2.08;;;18.70;99.90;;;;;;5035703;28;20025;-64
2022/02/06 11:23:49;;;;;;;12.52;2.17;;;18.80;99.90;;;;;;5048700;28;20029;-62
2022/02/06 11:26:25;;;;;;;16.98;2.53;;;18.70;99.90;;;;;;5052642;28;20034;-63
2022/02/06 11:28:55;;;;;;;15.80;2.15;;;18.80;99.90;;;;;;5053255;28;20025;-62
2022/02/06 11:31:23;;;;;;;13.68;1.92;;;18.80;99.90;;;;;;5055330;28;20033;-63
2022/02/06 11:33:50;;;;;;;14.90;2.42;;;18.80;99.90;;;;;;5052720;28;20025;-63
2022/02/06 11:36:24;;;;;;;11.85;2.58;;;18.70;99.90;;;;;;5050431;28;20067;-63
2022/02/06 11:44:59;;;;;;;10.50;1.77;;;18.50;99.90;;;;;;5053923;28;20055;-63
2022/02/06 11:47:30;;;;;;;12.40;1.58;;;18.50;99.90;;;;;;5052622;28;20010;-62
2022/02/06 11:50:07;;;;;;;13.98;2.70;;;18.50;99.90;;;;;;5051676;28;20049;-62
2022/02/06 11:52:55;;;;;;;13.60;2.05;;;18.50;99.90;;;;;;5034949;28;20043;-63
2022/02/06 11:55:48;;;;;;;21.50;2.17;;;18.50;99.90;;;;;;5063173;28;20028;-62
2022/02/06 11:58:22;;;;;;;15.65;3.28;;;18.70;99.90;;;;;;5061249;28;20104;-62
2022/02/06 12:01:07;;;;;;;23.73;2.95;;;18.80;99.90;;;;;;5059056;28;20065;-62
2022/02/06 12:03:58;;;;;;;16.50;2.63;;;18.80;99.90;;;;;;5072132;28;20073;-62
2022/02/06 12:06:54;;;;;;;17.05;2.25;;;18.70;99.90;;;;;;5039380;28;20025;-62
2022/02/06 12:09:24;;;;;;;15.63;2.60;;;18.70;99.90;;;;;;5058036;28;20169;-62
2022/02/06 12:12:10;;;;;;;15.57;3.03;;;18.70;99.90;;;;;;5046329;28;20033;-62
2022/02/06 12:14:53;;;;;;;11.65;1.75;;;18.70;99.90;;;;;;5058786;28;20029;-62
2022/02/06 12:17:44;;;;;;;11.43;1.92;;;18.80;99.90;;;;;;5063621;28;20009;-62
2022/02/06 12:20:14;;;;;;;17.70;2.75;;;18.70;99.90;;;;;;5058065;28;20034;-62
2022/02/06 12:22:47;;;;;;;20.33;3.22;;;18.70;99.90;;;;;;5057956;28;20079;-62
2022/02/06 12:25:32;;;;;;;18.70;2.70;;;18.80;99.90;;;;;;5069880;28;20033;-62
2022/02/06 12:28:17;;;;;;;19.23;2.63;;;18.80;99.90;;;;;;5052100;28;20278;-62
2022/02/06 12:30:46;;;;;;;11.60;1.85;;;18.70;99.90;;;;;;5060099;28;20029;-62
2022/02/06 12:33:33;;;;;;;21.75;3.05;;;18.80;99.90;;;;;;5052026;28;20096;-62
2022/02/06 12:38:45;;;;;;;15.05;2.47;;;18.80;99.90;;;;;;5069690;28;20651;-62
2022/02/06 12:41:28;;;;;;;14.38;2.85;;;18.80;99.90;;;;;;5051844;28;20103;-62
2022/02/06 12:44:02;;;;;;;11.82;1.75;;;18.80;99.90;;;;;;5043887;28;20123;-63
2022/02/06 12:46:29;;;;;;;;;;;18.80;99.90;;;;;;5035170;28;20266;-63
2022/02/06 12:49:04;;;;;;;9.13;1.02;;;18.90;99.90;;;;;;5055790;28;19909;-63
2022/02/06 12:51:35;;;;;;;11.52;1.27;;;18.90;99.90;;;;;;5048357;28;20029;-63
2022/02/06 12:54:05;;;;;;;12.05;1.73;;;18.90;99.90;;;;;;5035262;28;20017;-62
2022/02/06 12:56:34;;;;;;;12.85;2.15;;;18.90;99.90;;;;;;5017493;28;20026;-63
2022/02/06 12:59:02;;;;;;;12.52;1.85;;;18.90;99.90;;;;;;5051622;28;20009;-62
2022/02/06 13:01:41;;;;;;;17.58;2.35;;;18.90;99.90;;;;;;5057996;28;20041;-62
2022/02/06 13:04:18;;;;;;;13.23;1.98;;;19.00;99.90;;;;;;5052651;28;20021;-62
2022/02/06 13:06:47;;;;;;;11.25;1.40;;;19.10;99.90;;;;;;5026949;28;20053;-62
2022/02/06 13:09:36;;;;;;;8.45;1.20;;;19.10;99.90;;;;;;5042663;28;20029;-63
2022/02/06 13:15:03;;;;;;;13.07;1.95;;;19.10;99.90;;;;;;5041023;28;20041;-62
2022/02/06 13:20:24;;;;;;;12.85;1.80;;;19.00;99.90;;;;;;5046751;28;20033;-64
2022/02/06 13:31:04;;;;;;;10.68;1.20;;;18.90;99.90;;;;;;5053211;28;20037;-62
2022/02/06 13:38:43;;;;;;;8.15;0.98;;;19.00;99.90;;;;;;5045865;28;20025;-62
2022/02/06 13:41:17;;;;;;;10.25;1.33;;;19.20;99.90;;;;;;5080311;23;20116;-63
2022/02/06 13:43:48;;;;;;;9.35;1.67;;;19.20;99.90;;;;;;5084083;28;20025;-63
2022/02/06 13:46:24;;;;;;;8.52;1.50;;;19.20;99.90;;;;;;5085250;28;20489;-63
2022/02/06 13:48:52;;;;;;;11.65;1.77;;;19.10;99.90;;;;;;5082006;28;20059;-62
2022/02/06 13:51:34;;;;;;;9.50;1.48;;;19.10;99.90;;;;;;5080596;28;20025;-62
2022/02/06 13:54:04;;;;;;;11.02;1.23;;;19.00;99.90;;;;;;5083047;28;20036;-63
2022/02/06 13:56:32;;;;;;;15.57;2.03;;;18.90;99.90;;;;;;5067541;28;20103;-62
2022/02/06 13:59:11;;;;;;;9.48;1.52;;;18.70;99.90;;;;;;5084731;28;20039;-63
2022/02/06 14:01:38;;;;;;;5.25;1.40;;;18.50;99.90;;;;;;5081447;28;20036;-62
2022/02/06 14:04:07;;;;;;;14.27;1.65;;;18.40;99.90;;;;;;5089316;28;20044;-63
2022/02/06 14:06:48;;;;;;;13.63;1.92;;;18.20;99.90;;;;;;5085027;28;20114;-63
2022/02/06 14:09:23;;;;;;;8.38;1.15;;;18.00;99.90;;;;;;5083545;28;20503;-62
2022/02/06 14:11:58;;;;;;;10.65;1.33;;;17.90;99.90;;;;;;5072477;28;20128;-62
2022/02/06 14:14:26;;;;;;;10.60;2.00;;;17.70;99.90;;;;;;5082892;28;20037;-62
2022/02/06 14:16:56;;;;;;;10.70;1.83;;;17.50;99.90;;;;;;5077536;28;20017;-62
2022/02/06 14:19:44;;;;;;;7.20;1.45;;;17.50;99.90;;;;;;5089404;28;20001;-62
2022/02/06 14:22:23;;;;;;;16.08;2.15;;;17.50;99.90;;;;;;5093821;28;20025;-62
2022/02/06 14:24:56;;;;;;;7.25;1.38;;;17.50;99.90;;;;;;5091965;28;20024;-62
2022/02/06 14:27:31;;;;;;;9.40;1.58;;;17.60;99.90;;;;;;5075547;28;20055;-62
2022/02/06 14:30:14;;;;;;;10.02;1.95;;;17.70;99.90;;;;;;5094815;28;20096;-63
2022/02/06 14:32:57;;;;;;;12.27;1.25;;;17.70;99.90;;;;;;5093024;28;20028;-62
2022/02/06 14:35:36;;;;;;;10.45;1.65;;;17.60;99.90;;;;;;5093785;28;20051;-62
2022/02/06 14:38:05;;;;;;;12.80;2.05;;;17.60;99.90;;;;;;5088983;28;20042;-62
2022/02/06 14:43:14;;;;;;;7.80;1.58;;;17.50;99.90;;;;;;5090151;28;20017;-62
2022/02/06 14:45:50;;;;;;;7.57;1.27;;;17.60;99.90;;;;;;5083780;28;20033;-62
2022/02/06 14:48:19;;;;;;;6.72;1.08;;;17.70;99.90;;;;;;5082793;28;20025;-63
2022/02/06 14:50:47;;;;;;;16.08;2.17;;;17.80;99.90;;;;;;5075556;28;20020;-62
2022/02/06 14:53:16;;;;;;;14.10;1.73;;;17.90;99.90;;;;;;5080668;28;20037;-63
2022/02/06 14:55:44;;;;;;;11.27;1.73;;;17.80;99.90;;;;;;5081010;28;20108;-62
2022/02/06 14:58:12;;;;;;;13.50;2.22;;;17.90;99.90;;;;;;5079337;28;20036;-62
2022/02/06 15:00:40;;;;;;;11.73;2.50;;;17.80;99.90;;;;;;5080947;28;20005;-62
2022/02/06 15:03:11;;;;;;;15.23;1.88;;;17.90;99.90;;;;;;5085905;28;20033;-62
2022/02/06 15:05:39;;;;;;;15.05;1.20;;;17.90;99.90;;;;;;5084394;28;20029;-62
2022/02/06 15:08:07;;;;;;;12.50;1.70;;;17.90;99.90;;;;;;5089823;28;20063;-62
2022/02/06 15:10:35;;;;;;;11.68;2.35;;;18.00;99.90;;;;;;5077229;28;20021;-63
2022/02/06 15:13:04;;;;;;;8.52;1.38;;;18.00;99.90;;;;;;5082712;28;20037;-63
2022/02/06 15:15:37;;;;;;;10.23;1.02;;;18.10;99.90;;;;;;5080204;28;20017;-63
2022/02/06 15:20:55;;;;;;;6.68;1.15;;;18.20;99.90;;;;;;5079841;28;20176;-62
2022/02/06 15:23:24;;;;;;;6.55;0.82;;;18.20;99.90;;;;;;5070366;28;20443;-62
2022/02/06 15:25:54;;;;;;;5.05;1.15;;;18.20;99.90;;;;;;5070587;28;20032;-63
2022/02/06 15:28:22;;;;;;;9.13;1.63;;;18.20;99.90;;;;;;5077427;28;20032;-63
2022/02/06 15:30:49;;;;;;;8.32;1.58;;;18.20;99.90;;;;;;5065931;28;20033;-63
2022/02/06 15:33:16;;;;;;;7.45;1.42;;;18.10;99.90;;;;;;5061445;28;20033;-63
2022/02/06 15:35:45;;;;;;;15.45;2.20;;;18.00;99.90;;;;;;5070087;28;20520;-64
2022/02/06 15:38:15;;;;;;;12.73;2.45;;;17.90;99.90;;;;;;5069569;28;20036;-62
2022/02/06 15:40:43;;;;;;;8.13;0.93;;;17.70;99.90;;;;;;5066060;28;20049;-62
2022/02/06 15:43:11;;;;;;;9.32;0.80;;;17.60;99.90;;;;;;5048153;28;20017;-62
2022/02/06 15:45:42;;;;;;;12.55;1.10;;;17.50;99.90;;;;;;5068176;28;20043;-62
2022/02/06 15:48:10;;;;;;;8.50;1.40;;;17.40;99.90;;;;;;5074767;28;20020;-63
2022/02/06 15:50:39;;;;;;;9.18;1.13;;;17.50;99.90;;;;;;5074916;28;20025;-63